Time;durP1;ratioP1;P1;durP2;ratioP2;P2;SDS_P1;SDS_P2;PMS_P1;PMS_P2;Temp;Humidity;BMP_temperature;BMP_pressure;BME280_temperature;BME280_humidity;BME280_pressure;Samples;Min_cycle;Max_cycle;Signal;HPM_P1;HPM_P2
2021/01/18 00:01:47;;;;;;;1999.90;999.90;;;3.30;99.90;;;;;;6279343;22;20334;-93
2021/01/18 00:04:17;;;;;;;1999.90;999.90;;;3.40;99.90;;;;;;6280248;22;20024;-93
2021/01/18 00:06:44;;;;;;;1999.90;999.90;;;3.30;99.90;;;;;;6279106;22;20012;-94
2021/01/18 00:09:17;;;;;;;1999.90;999.90;;;3.30;99.90;;;;;;6279897;22;20023;-93
2021/01/18 00:11:45;;;;;;;1999.90;999.90;;;3.20;99.90;;;;;;6279484;22;20015;-93
2021/01/18 00:14:26;;;;;;;1999.90;999.90;;;3.20;99.90;;;;;;6292030;22;20075;-96
2021/01/18 00:17:10;;;;;;;1999.90;999.90;;;3.20;99.90;;;;;;6292908;22;20034;-96
2021/01/18 00:19:57;;;;;;;1999.90;999.90;;;3.20;99.90;;;;;;6292790;22;20015;-96
2021/01/18 00:22:30;;;;;;;1999.90;999.90;;;3.10;99.90;;;;;;6287845;22;20015;-96
2021/01/18 00:25:09;;;;;;;1999.90;999.90;;;3.10;99.90;;;;;;6291829;22;20039;-96
2021/01/18 00:27:51;;;;;;;1999.90;999.90;;;3.10;99.90;;;;;;6290662;22;20011;-96
2021/01/18 00:30:25;;;;;;;1999.90;999.90;;;3.00;99.90;;;;;;6287621;22;20016;-96
2021/01/18 00:33:21;;;;;;;1999.90;999.90;;;3.00;99.90;;;;;;6284451;22;20026;-96
2021/01/18 00:35:57;;;;;;;1999.90;999.90;;;3.00;99.90;;;;;;6293065;22;20032;-96
2021/01/18 00:38:51;;;;;;;1999.90;999.90;;;2.90;99.90;;;;;;6293057;22;20080;-96
2021/01/18 00:44:33;;;;;;;1999.90;999.90;;;2.90;99.90;;;;;;6266704;22;20030;-96
2021/01/18 00:47:09;;;;;;;1999.90;999.90;;;2.90;99.90;;;;;;6292310;22;20020;-96
2021/01/18 00:49:44;;;;;;;1999.90;999.90;;;2.90;99.90;;;;;;6292449;22;20365;-96
2021/01/18 00:52:19;;;;;;;1999.90;999.90;;;2.90;99.90;;;;;;6293134;22;20020;-96
2021/01/18 00:55:13;;;;;;;1999.90;999.90;;;2.90;99.90;;;;;;6280559;22;20050;-96
2021/01/18 01:00:56;;;;;;;1999.90;999.90;;;2.90;99.90;;;;;;6286944;22;20019;-96
2021/01/18 01:03:43;;;;;;;1999.90;999.90;;;2.90;99.90;;;;;;6290237;22;20075;-96
2021/01/18 01:10:24;;;;;;;1999.90;999.90;;;2.90;99.90;;;;;;6169112;23;20017;-96
2021/01/18 01:13:07;;;;;;;1999.90;999.90;;;2.90;99.90;;;;;;6167106;23;20022;-96
2021/01/18 01:15:41;;;;;;;1999.90;999.90;;;2.80;99.90;;;;;;6167547;23;20017;-95
2021/01/18 01:18:10;;;;;;;1999.90;999.90;;;2.90;99.90;;;;;;6167517;23;20025;-96
2021/01/18 01:20:40;;;;;;;1999.90;999.90;;;2.90;99.90;;;;;;6168255;23;20030;-96
2021/01/18 01:23:23;;;;;;;1999.90;999.90;;;2.90;99.90;;;;;;6167799;23;20097;-96
2021/01/18 01:26:05;;;;;;;1999.90;999.90;;;2.90;99.90;;;;;;6167919;23;20017;-96
2021/01/18 01:28:48;;;;;;;1999.90;999.90;;;2.90;99.90;;;;;;6163096;23;20100;-94
2021/01/18 01:31:25;;;;;;;1999.90;999.90;;;2.90;99.90;;;;;;6168131;23;20022;-96
2021/01/18 01:34:02;;;;;;;1999.90;999.90;;;2.90;99.90;;;;;;6167112;23;20017;-94
2021/01/18 01:36:30;;;;;;;1999.90;999.90;;;2.80;99.90;;;;;;6168403;23;20504;-96
2021/01/18 01:39:06;;;;;;;1999.90;999.90;;;2.80;99.90;;;;;;6168413;23;20033;-96
2021/01/18 01:41:42;;;;;;;1999.90;999.90;;;2.80;99.90;;;;;;6168735;23;20076;-96
2021/01/18 01:44:18;;;;;;;1999.90;999.90;;;2.80;99.90;;;;;;6259698;22;20046;-96
2021/01/18 01:47:16;;;;;;;1999.90;999.90;;;2.90;99.90;;;;;;6282270;22;20020;-96
2021/01/18 01:49:59;;;;;;;1999.90;999.90;;;2.80;99.90;;;;;;6291118;22;20027;-96
2021/01/18 01:52:37;;;;;;;1999.90;999.90;;;2.80;99.90;;;;;;6291438;22;20020;-96
2021/01/18 01:55:26;;;;;;;1999.90;999.90;;;2.80;99.90;;;;;;6295991;22;20027;-96
2021/01/18 01:58:12;;;;;;;1999.90;999.90;;;2.90;99.90;;;;;;6299458;22;20059;-95
2021/01/18 02:00:48;;;;;;;1999.90;999.90;;;2.90;99.90;;;;;;6301879;22;20019;-96
2021/01/18 02:03:33;;;;;;;1999.90;999.90;;;2.80;99.90;;;;;;6301351;22;20015;-96
2021/01/18 02:08:53;;;;;;;1999.90;999.90;;;2.80;99.90;;;;;;6297196;22;20028;-96
2021/01/18 02:11:23;;;;;;;1999.90;999.90;;;2.80;99.90;;;;;;6295803;22;20020;-96
2021/01/18 02:14:36;;;;;;;1999.90;999.90;;;2.80;99.90;;;;;;6293203;22;20007;-96
2021/01/18 02:17:24;;;;;;;1999.90;999.90;;;2.80;99.90;;;;;;6289607;22;20019;-96
2021/01/18 02:20:36;;;;;;;1999.90;999.90;;;2.70;99.90;;;;;;6285352;22;20020;-96
2021/01/18 02:23:35;;;;;;;1999.90;999.90;;;2.70;99.90;;;;;;6288887;22;20021;-96
2021/01/18 02:26:07;;;;;;;1999.90;999.90;;;2.70;99.90;;;;;;6293223;22;20046;-96
2021/01/18 02:29:03;;;;;;;1999.90;999.90;;;2.70;99.90;;;;;;6292418;22;20012;-96
2021/01/18 02:32:42;;;;;;;1999.90;999.90;;;2.70;99.90;;;;;;6297813;22;20051;-96
2021/01/18 02:35:53;;;;;;;1999.90;999.90;;;2.70;99.90;;;;;;6292057;22;20030;-94
2021/01/18 02:38:37;;;;;;;1999.90;999.90;;;2.70;99.90;;;;;;6295699;22;20023;-96
2021/01/18 02:41:25;;;;;;;1999.90;999.90;;;2.70;99.90;;;;;;6289446;22;20020;-96
2021/01/18 02:44:05;;;;;;;1999.90;999.90;;;2.70;99.90;;;;;;6285183;22;20023;-96
2021/01/18 02:46:41;;;;;;;1999.90;999.90;;;2.70;99.90;;;;;;6288779;22;20026;-96
2021/01/18 02:49:16;;;;;;;1999.90;999.90;;;2.70;99.90;;;;;;6285529;22;20024;-96
2021/01/18 02:51:56;;;;;;;1999.90;999.90;;;2.70;99.90;;;;;;6287542;22;20020;-94
2021/01/18 02:54:28;;;;;;;1999.90;999.90;;;2.70;99.90;;;;;;6284205;22;20030;-96
2021/01/18 02:57:10;;;;;;;1999.90;999.90;;;2.70;99.90;;;;;;6285032;22;20023;-96
2021/01/18 02:59:55;;;;;;;1999.90;999.90;;;2.70;99.90;;;;;;6284494;22;20338;-96
2021/01/18 03:03:05;;;;;;;1999.90;999.90;;;2.70;99.90;;;;;;6287995;22;20024;-96
2021/01/18 03:05:50;;;;;;;1999.90;999.90;;;2.70;99.90;;;;;;6288645;22;20019;-95
2021/01/18 03:08:45;;;;;;;1999.90;999.90;;;2.70;99.90;;;;;;6287989;22;20067;-96
2021/01/18 03:11:22;;;;;;;1999.90;999.90;;;2.70;99.90;;;;;;6262321;22;20019;-96
2021/01/18 03:14:07;;;;;;;1999.90;999.90;;;2.70;99.90;;;;;;6288160;22;20027;-96
2021/01/18 03:16:59;;;;;;;1999.90;999.90;;;2.70;99.90;;;;;;6287197;22;20049;-96
2021/01/18 03:19:47;;;;;;;1999.90;999.90;;;2.80;99.90;;;;;;6286611;22;20068;-95
2021/01/18 03:22:23;;;;;;;1999.90;999.90;;;2.80;99.90;;;;;;6286522;22;20439;-96
2021/01/18 03:25:19;;;;;;;1999.90;999.90;;;2.70;99.90;;;;;;6287676;22;20023;-96
2021/01/18 03:27:58;;;;;;;1999.90;999.90;;;2.80;99.90;;;;;;6284899;22;20015;-96
2021/01/18 03:30:33;;;;;;;1999.90;999.90;;;2.70;99.90;;;;;;6285669;22;20015;-96
2021/01/18 03:33:03;;;;;;;1999.90;999.90;;;2.70;99.90;;;;;;6282974;22;20442;-93
2021/01/18 03:35:37;;;;;;;1999.90;999.90;;;2.80;99.90;;;;;;6279830;22;20042;-94
2021/01/18 03:38:05;;;;;;;1999.90;999.90;;;2.80;99.90;;;;;;6279938;22;20019;-94
2021/01/18 03:40:33;;;;;;;1999.90;999.90;;;2.80;99.90;;;;;;6280716;22;20024;-93
2021/01/18 03:43:03;;;;;;;1999.90;999.90;;;2.80;99.90;;;;;;6283998;22;20050;-93
2021/01/18 03:45:31;;;;;;;1999.90;999.90;;;2.80;99.90;;;;;;6282266;22;20016;-93
2021/01/18 03:47:58;;;;;;;1999.90;999.90;;;2.80;99.90;;;;;;6288765;22;20043;-94
2021/01/18 03:50:26;;;;;;;1999.90;999.90;;;2.80;99.90;;;;;;6281453;22;20069;-93
2021/01/18 03:53:00;;;;;;;1999.90;999.90;;;2.80;99.90;;;;;;6284058;22;20069;-95
2021/01/18 03:55:27;;;;;;;1999.90;999.90;;;2.90;99.90;;;;;;6292990;22;20026;-93
2021/01/18 03:57:57;;;;;;;1999.90;999.90;;;2.90;99.90;;;;;;6297454;22;20016;-93
2021/01/18 04:00:30;;;;;;;1999.90;999.90;;;2.90;99.90;;;;;;6297602;22;20020;-92
2021/01/18 04:03:01;;;;;;;1999.90;999.90;;;2.90;99.90;;;;;;6295167;22;20053;-93
2021/01/18 04:05:30;;;;;;;1999.90;999.90;;;2.90;99.90;;;;;;6302092;22;20021;-96
2021/01/18 04:08:07;;;;;;;1999.90;999.90;;;3.00;99.90;;;;;;6297700;22;20094;-96
2021/01/18 04:10:46;;;;;;;1999.90;999.90;;;2.90;99.90;;;;;;6292244;22;20027;-96
2021/01/18 04:13:28;;;;;;;1999.90;999.90;;;3.00;99.90;;;;;;6293105;22;20035;-96
2021/01/18 04:16:02;;;;;;;1999.90;999.90;;;3.00;99.90;;;;;;6293079;22;20027;-96
2021/01/18 04:18:31;;;;;;;1999.90;999.90;;;3.00;99.90;;;;;;6293619;22;20035;-96
2021/01/18 04:21:01;;;;;;;1999.90;999.90;;;3.00;99.90;;;;;;6293205;22;20050;-96
2021/01/18 04:23:36;;;;;;;1999.90;999.90;;;3.00;99.90;;;;;;6293126;22;20019;-96
2021/01/18 04:26:13;;;;;;;1999.90;999.90;;;3.00;99.90;;;;;;6293495;22;20019;-96
2021/01/18 04:32:04;;;;;;;1999.90;999.90;;;3.10;99.90;;;;;;6290224;22;20075;-97
2021/01/18 04:34:34;;;;;;;1999.90;999.90;;;3.10;99.90;;;;;;6290543;22;20346;-96
2021/01/18 04:37:03;;;;;;;1999.90;999.90;;;3.10;99.90;;;;;;6290297;22;20410;-96
2021/01/18 04:39:33;;;;;;;1999.90;999.90;;;3.10;99.90;;;;;;6294149;22;20019;-96
2021/01/18 04:42:10;;;;;;;1999.90;999.90;;;3.20;99.90;;;;;;6301731;22;20020;-96
2021/01/18 04:44:44;;;;;;;1999.90;999.90;;;3.20;99.90;;;;;;6300500;22;20020;-96
2021/01/18 04:47:15;;;;;;;1999.90;999.90;;;3.30;99.90;;;;;;6298070;22;20023;-96
2021/01/18 04:49:45;;;;;;;1999.90;999.90;;;3.30;99.90;;;;;;6299146;22;20019;-96
2021/01/18 04:52:17;;;;;;;1999.90;999.90;;;3.30;99.90;;;;;;6295076;22;20026;-96
2021/01/18 04:55:03;;;;;;;1999.90;999.90;;;3.40;99.90;;;;;;6285749;22;20091;-96
2021/01/18 04:57:43;;;;;;;1999.90;999.90;;;3.30;99.90;;;;;;6286412;22;20012;-96
2021/01/18 05:00:30;;;;;;;1999.90;999.90;;;3.30;99.90;;;;;;6286729;22;20020;-96
2021/01/18 05:10:30;;;;;;;1999.90;999.90;;;3.40;99.90;;;;;;6286311;22;20030;-96
2021/01/18 05:13:40;;;;;;;1999.90;999.90;;;3.40;99.90;;;;;;6285050;22;20442;-96
2021/01/18 05:16:31;;;;;;;1999.90;999.90;;;3.40;99.90;;;;;;6287848;22;20023;-96
2021/01/18 05:19:28;;;;;;;1999.90;999.90;;;3.40;99.90;;;;;;6287683;22;20020;-96
2021/01/18 05:22:07;;;;;;;1999.90;999.90;;;3.40;99.90;;;;;;6289012;22;20069;-96
2021/01/18 05:34:02;;;;;;;1999.90;999.90;;;3.50;99.90;;;;;;6291764;22;20023;-96
2021/01/18 05:37:13;;;;;;;1999.90;999.90;;;3.50;99.90;;;;;;6290484;22;20046;-96
2021/01/18 05:43:45;;;;;;;1999.90;999.90;;;3.50;99.90;;;;;;6139763;23;20013;-96
2021/01/18 05:46:32;;;;;;;1999.90;999.90;;;3.60;99.90;;;;;;6139686;23;20053;-96
2021/01/18 05:49:26;;;;;;;1999.90;999.90;;;3.60;99.90;;;;;;6114637;23;20083;-96
2021/01/18 06:02:46;;;;;;;1999.90;999.90;;;3.70;99.90;;;;;;6257313;22;19926;-96
2021/01/18 06:05:39;;;;;;;1999.90;999.90;;;3.70;99.90;;;;;;6257776;23;20027;-96
2021/01/18 06:08:25;;;;;;;1999.90;999.90;;;3.70;99.90;;;;;;6256547;23;20114;-96
2021/01/18 06:11:20;;;;;;;;;;;;;;;;;;;;;
2021/01/18 06:13:56;;;;;;;1999.90;999.90;;;3.60;99.90;;;;;;6256488;23;20031;-96
2021/01/18 06:16:44;;;;;;;1999.90;999.90;;;3.70;99.90;;;;;;6256735;23;20047;-96
2021/01/18 06:19:29;;;;;;;1999.90;999.90;;;3.70;99.90;;;;;;6256764;23;20027;-96
2021/01/18 06:25:01;;;;;;;1999.90;999.90;;;3.80;99.90;;;;;;6260889;23;20027;-96
2021/01/18 06:45:31;;;;;;;1999.90;999.90;;;3.90;99.90;;;;;;6205803;22;20027;-96
2021/01/18 06:48:22;;;;;;;1999.90;999.90;;;3.90;99.90;;;;;;6262667;22;20028;-96
2021/01/18 06:54:59;;;;;;;1999.90;999.90;;;3.90;99.90;;;;;;6037324;23;20041;-96
2021/01/18 06:58:15;;;;;;;1999.90;999.90;;;4.00;99.90;;;;;;6096098;23;20020;-96
2021/01/18 07:01:00;;;;;;;1999.90;999.90;;;4.00;99.90;;;;;;6258393;23;20369;-96
2021/01/18 07:03:40;;;;;;;1999.90;999.90;;;4.10;99.90;;;;;;6258076;23;20026;-96
2021/01/18 07:06:33;;;;;;;1999.90;999.90;;;4.10;99.90;;;;;;6258151;23;20067;-96
2021/01/18 07:09:02;;;;;;;1999.90;999.90;;;4.20;99.90;;;;;;6227987;22;20028;-96
2021/01/18 07:11:55;;;;;;;1999.90;999.90;;;4.10;99.90;;;;;;6257348;23;20028;-96
2021/01/18 07:14:28;;;;;;;1999.90;999.90;;;4.20;99.90;;;;;;6256465;22;20036;-96
2021/01/18 07:17:32;;;;;;;1999.90;999.90;;;4.20;99.90;;;;;;6256120;23;20020;-96
2021/01/18 07:20:20;;;;;;;;;;;;;;;;;;;;;
2021/01/18 07:23:31;;;;;;;1999.90;999.90;;;4.30;99.90;;;;;;6259433;23;19931;-96
2021/01/18 07:26:46;;;;;;;1999.90;999.90;;;4.20;99.90;;;;;;6255935;23;20044;-96
2021/01/18 07:29:27;;;;;;;1999.90;999.90;;;4.30;99.90;;;;;;6259420;23;20012;-96
2021/01/18 07:32:18;;;;;;;1999.90;999.90;;;4.30;99.90;;;;;;6258492;23;20020;-96
2021/01/18 07:35:05;;;;;;;1999.90;999.90;;;4.30;99.90;;;;;;6257845;22;20047;-96
2021/01/18 07:37:34;;;;;;;1999.90;999.90;;;4.30;99.90;;;;;;6256649;23;20028;-96
2021/01/18 07:40:28;;;;;;;1999.90;999.90;;;4.30;99.90;;;;;;6249071;23;20439;-95
2021/01/18 07:43:40;;;;;;;1999.90;999.90;;;4.30;99.90;;;;;;6249851;23;20024;-95
2021/01/18 07:46:38;;;;;;;1999.90;999.90;;;4.30;99.90;;;;;;6249034;23;20035;-96
2021/01/18 07:49:45;;;;;;;1999.90;999.90;;;4.30;99.90;;;;;;6249695;22;20024;-95
2021/01/18 07:52:42;;;;;;;1999.90;999.90;;;4.30;99.90;;;;;;6249195;23;20024;-96
2021/01/18 07:55:38;;;;;;;1999.90;999.90;;;4.30;99.90;;;;;;6249288;23;20027;-94
2021/01/18 07:58:36;;;;;;;1999.90;999.90;;;4.30;99.90;;;;;;6249431;22;20020;-95
2021/01/18 08:01:14;;;;;;;1999.90;999.90;;;4.30;99.90;;;;;;6248769;23;20391;-93
2021/01/18 08:03:46;;;;;;;1999.90;999.90;;;4.30;99.90;;;;;;6249044;23;20016;-94
2021/01/18 08:06:21;;;;;;;1999.90;999.90;;;4.30;99.90;;;;;;6249902;23;20020;-94
2021/01/18 08:08:53;;;;;;;1999.90;999.90;;;4.30;99.90;;;;;;6249813;23;20027;-94
2021/01/18 08:14:25;;;;;;;1999.90;999.90;;;4.30;99.90;;;;;;6245192;22;20386;-93
2021/01/18 08:17:01;;;;;;;1999.90;999.90;;;4.30;99.90;;;;;;6248745;23;20016;-93
2021/01/18 08:19:36;;;;;;;1999.90;999.90;;;4.30;99.90;;;;;;6249690;23;20051;-95
2021/01/18 08:22:09;;;;;;;;;;;4.30;99.90;;;;;;6251640;23;20024;-95
2021/01/18 08:24:52;;;;;;;1999.90;999.90;;;4.30;99.90;;;;;;6248289;22;19926;-94
2021/01/18 08:30:42;;;;;;;1999.90;999.90;;;4.20;99.90;;;;;;6233486;22;20016;-94
2021/01/18 08:33:42;;;;;;;1999.90;999.90;;;4.20;99.90;;;;;;6248399;22;20024;-94
2021/01/18 08:37:07;;;;;;;1999.90;999.90;;;4.30;99.90;;;;;;6249230;23;20020;-94
2021/01/18 08:40:48;;;;;;;;;;;;;;;;;;;;;
2021/01/18 08:43:43;;;;;;;1999.90;999.90;;;4.30;99.90;;;;;;6248854;23;20020;-94
2021/01/18 08:46:51;;;;;;;1999.90;999.90;;;4.40;99.90;;;;;;6248073;22;20407;-94
2021/01/18 08:49:38;;;;;;;1999.90;999.90;;;4.40;99.90;;;;;;6277945;22;20023;-93
2021/01/18 08:52:38;;;;;;;1999.90;999.90;;;4.50;99.90;;;;;;6279806;22;20082;-94
2021/01/18 08:56:04;;;;;;;1999.90;999.90;;;4.50;99.90;;;;;;6270579;22;20023;-96
2021/01/18 08:58:46;;;;;;;1999.90;999.90;;;4.50;99.90;;;;;;6279344;22;20474;-95
2021/01/18 09:01:36;;;;;;;1999.90;999.90;;;4.60;99.90;;;;;;6280049;22;20019;-94
2021/01/18 09:04:18;;;;;;;1999.90;999.90;;;4.60;99.90;;;;;;6281520;22;20026;-94
2021/01/18 09:06:55;;;;;;;1999.90;999.90;;;4.60;99.90;;;;;;6280269;22;20020;-94
2021/01/18 09:09:43;;;;;;;1999.90;999.90;;;4.60;99.90;;;;;;6280880;22;20026;-96
2021/01/18 09:12:24;;;;;;;1999.90;999.90;;;4.70;99.90;;;;;;6284723;22;20035;-96
2021/01/18 09:19:30;;;;;;;1999.90;999.90;;;4.60;99.90;;;;;;6253934;23;20553;-96
2021/01/18 09:22:41;;;;;;;;;;;;;;;;;;;;;
2021/01/18 09:25:25;;;;;;;1999.90;999.90;;;4.70;99.90;;;;;;6251031;22;20031;-93
2021/01/18 09:28:41;;;;;;;1999.90;999.90;;;4.70;99.90;;;;;;6252892;23;20028;-93
2021/01/18 09:31:16;;;;;;;1999.90;999.90;;;4.80;99.90;;;;;;6249646;23;20106;-93
2021/01/18 09:33:47;;;;;;;1999.90;999.90;;;4.80;99.90;;;;;;6247401;23;20016;-93
2021/01/18 09:36:19;;;;;;;1999.90;999.90;;;4.80;99.90;;;;;;6269924;22;20019;-93
2021/01/18 09:38:51;;;;;;;1999.90;999.90;;;4.80;99.90;;;;;;6279969;22;20012;-93
2021/01/18 09:41:18;;;;;;;1999.90;999.90;;;4.90;99.90;;;;;;6278308;22;20102;-93
2021/01/18 09:43:55;;;;;;;1999.90;999.90;;;4.90;99.90;;;;;;6279163;22;20106;-93
2021/01/18 09:46:31;;;;;;;1999.90;999.90;;;5.00;99.90;;;;;;6279220;22;20019;-93
2021/01/18 09:49:02;;;;;;;1999.90;999.90;;;5.00;99.90;;;;;;6279236;22;20042;-93
2021/01/18 09:51:32;;;;;;;1999.90;999.90;;;5.00;99.90;;;;;;6279685;22;20031;-93
2021/01/18 09:54:11;;;;;;;1999.90;999.90;;;5.00;99.90;;;;;;6279569;22;20019;-93
2021/01/18 09:56:58;;;;;;;1999.90;999.90;;;5.00;99.90;;;;;;6278887;22;20019;-94
2021/01/18 09:59:53;;;;;;;1999.90;999.90;;;5.00;99.90;;;;;;6279235;22;20019;-93
2021/01/18 10:02:27;;;;;;;;;;;5.10;99.90;;;;;;6280996;22;20036;-93
2021/01/18 10:05:06;;;;;;;;;;;;;;;;;;;;;
2021/01/18 10:08:11;;;;;;;1999.90;999.90;;;5.20;99.90;;;;;;5134922;27;20309;-93
2021/01/18 10:10:43;;;;;;;1999.90;999.90;;;5.30;99.90;;;;;;5135256;28;20542;-94
2021/01/18 10:13:20;;;;;;;1999.90;999.90;;;5.30;99.90;;;;;;5135489;28;20054;-94
2021/01/18 10:15:51;;;;;;;1999.90;999.90;;;5.40;99.90;;;;;;5135586;28;20051;-94
2021/01/18 10:18:32;;;;;;;1999.90;999.90;;;5.40;99.90;;;;;;5134621;28;20150;-94
2021/01/18 10:21:01;;;;;;;1999.90;999.90;;;5.40;99.90;;;;;;5135835;28;20057;-94
2021/01/18 10:23:38;;;;;;;1999.90;999.90;;;5.40;99.90;;;;;;5135232;28;20439;-94
2021/01/18 10:26:24;;;;;;;1999.90;999.90;;;5.40;99.90;;;;;;5141774;28;20046;-96
2021/01/18 10:29:09;;;;;;;1999.90;999.90;;;5.50;99.90;;;;;;5146951;27;20058;-96
2021/01/18 10:31:54;;;;;;;1999.90;999.90;;;5.50;99.90;;;;;;5142886;27;20059;-96
2021/01/18 10:34:31;;;;;;;1999.90;999.90;;;5.50;99.90;;;;;;5146441;28;20051;-96
2021/01/18 10:40:56;;;;;;;1999.90;999.90;;;5.60;99.90;;;;;;5149002;27;20051;-96
2021/01/18 10:43:47;;;;;;;1999.90;999.90;;;5.60;99.90;;;;;;5142930;28;20051;-96
2021/01/18 10:46:17;;;;;;;1999.90;999.90;;;5.60;99.90;;;;;;5143184;27;20458;-96
2021/01/18 10:49:01;;;;;;;1999.90;999.90;;;5.60;99.90;;;;;;5147131;27;20048;-96
2021/01/18 10:51:36;;;;;;;1999.90;999.90;;;5.60;99.90;;;;;;5145189;28;20134;-96
2021/01/18 10:54:04;;;;;;;;;;;5.70;99.90;;;;;;5142785;28;20049;-96
2021/01/18 10:56:51;;;;;;;1999.90;999.90;;;5.60;99.90;;;;;;5141672;28;19923;-96
2021/01/18 10:59:22;;;;;;;1999.90;999.90;;;5.60;99.90;;;;;;5142487;28;20523;-95
2021/01/18 11:02:25;;;;;;;1999.90;999.90;;;5.60;99.90;;;;;;5143368;28;20083;-96
2021/01/18 11:05:38;;;;;;;1999.90;999.90;;;5.70;99.90;;;;;;5123853;28;20073;-95
2021/01/18 11:08:11;;;;;;;1999.90;999.90;;;5.70;99.90;;;;;;5141531;28;20059;-96
2021/01/18 11:10:49;;;;;;;1999.90;999.90;;;5.70;99.90;;;;;;5141266;28;20055;-96
2021/01/18 11:13:41;;;;;;;1999.90;999.90;;;5.70;99.90;;;;;;5136898;28;20051;-96
2021/01/18 11:16:17;;;;;;;1999.90;999.90;;;5.70;99.90;;;;;;5138301;28;20112;-95
2021/01/18 11:18:47;;;;;;;1999.90;999.90;;;5.80;99.90;;;;;;5129919;28;20539;-96
2021/01/18 11:21:25;;;;;;;1999.90;999.90;;;5.80;99.90;;;;;;5125754;28;20054;-96
2021/01/18 11:24:00;;;;;;;1999.90;999.90;;;5.80;99.90;;;;;;5128207;28;20073;-96
2021/01/18 11:26:37;;;;;;;1999.90;999.90;;;5.80;99.90;;;;;;5130363;28;20047;-96
2021/01/18 11:29:13;;;;;;;1999.90;999.90;;;5.90;99.90;;;;;;5128979;28;20082;-96
2021/01/18 11:31:58;;;;;;;1999.90;999.90;;;5.90;99.90;;;;;;5133011;28;20067;-96
2021/01/18 11:34:34;;;;;;;1999.90;999.90;;;5.90;99.90;;;;;;5150249;27;20052;-96
2021/01/18 11:37:16;;;;;;;1999.90;999.90;;;5.90;99.90;;;;;;5129894;28;20052;-96
2021/01/18 11:39:52;;;;;;;1999.90;999.90;;;5.90;99.90;;;;;;5135567;28;20074;-96
2021/01/18 11:42:24;;;;;;;1999.90;999.90;;;5.90;99.90;;;;;;5136035;28;20052;-96
2021/01/18 11:44:59;;;;;;;1999.90;999.90;;;5.90;99.90;;;;;;5137239;28;20048;-96
2021/01/18 11:47:36;;;;;;;1999.90;999.90;;;5.90;99.90;;;;;;5138167;28;20051;-96
2021/01/18 11:50:13;;;;;;;1999.90;999.90;;;5.90;99.90;;;;;;5138882;28;20036;-96
2021/01/18 11:52:51;;;;;;;1999.90;999.90;;;6.00;99.90;;;;;;5140950;28;20036;-96
2021/01/18 11:55:21;;;;;;;1999.90;999.90;;;6.00;99.90;;;;;;5127863;28;20047;-94
2021/01/18 11:57:51;;;;;;;1999.90;999.90;;;6.00;99.90;;;;;;5118315;28;20044;-94
2021/01/18 12:00:24;;;;;;;1999.90;999.90;;;6.10;99.90;;;;;;5119002;28;20058;-94
2021/01/18 12:02:53;;;;;;;1999.90;999.90;;;6.10;99.90;;;;;;5117848;28;20044;-94
2021/01/18 12:05:25;;;;;;;1999.90;999.90;;;6.10;99.90;;;;;;5117497;28;20134;-94
2021/01/18 12:07:52;;;;;;;1999.90;999.90;;;6.10;99.90;;;;;;5116910;28;20055;-93
2021/01/18 12:10:20;;;;;;;1999.90;999.90;;;6.10;99.90;;;;;;5117313;28;20066;-93
2021/01/18 12:12:49;;;;;;;1999.90;999.90;;;6.20;99.90;;;;;;5107692;28;20078;-93
2021/01/18 12:15:17;;;;;;;1999.90;999.90;;;6.20;99.90;;;;;;5117066;28;20547;-93
2021/01/18 12:17:46;;;;;;;1999.90;999.90;;;6.20;99.90;;;;;;5117184;28;20113;-93
2021/01/18 12:20:16;;;;;;;1999.90;999.90;;;6.30;99.90;;;;;;5117207;28;20051;-93
2021/01/18 12:22:44;;;;;;;1999.90;999.90;;;6.30;99.90;;;;;;5117291;28;20062;-92
2021/01/18 12:25:12;;;;;;;1999.90;999.90;;;6.40;99.90;;;;;;5117617;28;20051;-93
2021/01/18 12:27:40;;;;;;;1999.90;999.90;;;6.40;99.90;;;;;;5116584;28;20134;-94
2021/01/18 12:30:09;;;;;;;1999.90;999.90;;;6.40;99.90;;;;;;5116188;28;20044;-93
2021/01/18 12:32:37;;;;;;;1999.90;999.90;;;6.40;99.90;;;;;;5116897;28;20051;-93
2021/01/18 12:35:06;;;;;;;1999.90;999.90;;;6.40;99.90;;;;;;5117213;28;20062;-93
2021/01/18 12:37:33;;;;;;;1999.90;999.90;;;6.50;99.90;;;;;;5116562;28;20051;-92
2021/01/18 12:40:00;;;;;;;1999.90;999.90;;;6.50;99.90;;;;;;5116968;28;20082;-93
2021/01/18 12:42:27;;;;;;;1999.90;999.90;;;6.50;99.90;;;;;;5116454;28;20051;-92
2021/01/18 12:44:55;;;;;;;1999.90;999.90;;;6.50;99.90;;;;;;5116372;28;20473;-93
2021/01/18 12:47:22;;;;;;;1999.90;999.90;;;6.60;99.90;;;;;;5116567;28;20504;-90
2021/01/18 12:49:49;;;;;;;1999.90;999.90;;;6.60;99.90;;;;;;5116599;28;20047;-93
2021/01/18 12:52:17;;;;;;;1999.90;999.90;;;6.60;99.90;;;;;;5116388;28;20047;-94
2021/01/18 12:54:51;;;;;;;1999.90;999.90;;;6.60;99.90;;;;;;5116363;28;20104;-93
2021/01/18 12:57:21;;;;;;;1999.90;999.90;;;6.60;99.90;;;;;;5116059;28;20117;-93
2021/01/18 12:59:48;;;;;;;1999.90;999.90;;;6.60;99.90;;;;;;5116648;28;20051;-94
2021/01/18 13:02:15;;;;;;;1999.90;999.90;;;6.60;99.90;;;;;;5116395;28;20079;-94
2021/01/18 13:04:47;;;;;;;1999.90;999.90;;;6.60;99.90;;;;;;5115975;28;20051;-94
2021/01/18 13:07:14;;;;;;;1999.90;999.90;;;6.60;99.90;;;;;;5115926;28;20465;-94
2021/01/18 13:09:42;;;;;;;1999.90;999.90;;;6.60;99.90;;;;;;5116343;28;20051;-93
2021/01/18 13:12:10;;;;;;;1999.90;999.90;;;6.60;99.90;;;;;;5116080;28;20047;-94
2021/01/18 13:14:37;;;;;;;1999.90;999.90;;;6.60;99.90;;;;;;5116313;28;20047;-94
2021/01/18 13:17:05;;;;;;;1999.90;999.90;;;6.70;99.90;;;;;;5115862;28;20048;-94
2021/01/18 13:19:32;;;;;;;1999.90;999.90;;;6.70;99.90;;;;;;5116207;28;20051;-94
2021/01/18 13:22:00;;;;;;;1999.90;999.90;;;6.70;99.90;;;;;;5116670;28;20055;-94
2021/01/18 13:24:27;;;;;;;1999.90;999.90;;;6.70;99.90;;;;;;5116068;28;20048;-94
2021/01/18 13:26:55;;;;;;;1999.90;999.90;;;6.80;99.90;;;;;;5115946;28;20070;-94
2021/01/18 13:29:23;;;;;;;1999.90;999.90;;;6.70;99.90;;;;;;5116078;28;20051;-93
2021/01/18 13:31:50;;;;;;;1999.90;999.90;;;6.70;99.90;;;;;;5115429;28;20051;-93
2021/01/18 13:34:18;;;;;;;1999.90;999.90;;;6.70;99.90;;;;;;5116519;28;20047;-93
2021/01/18 13:36:45;;;;;;;1999.90;999.90;;;6.70;99.90;;;;;;5116253;28;20471;-93
2021/01/18 13:39:12;;;;;;;1999.90;999.90;;;6.70;99.90;;;;;;5115963;28;20048;-93
2021/01/18 13:41:40;;;;;;;1999.90;999.90;;;6.70;99.90;;;;;;5094852;28;20147;-94
2021/01/18 13:44:08;;;;;;;1999.90;999.90;;;6.70;99.90;;;;;;5095099;28;20094;-94
2021/01/18 13:46:37;;;;;;;1999.90;999.90;;;6.70;99.90;;;;;;5100198;28;20100;-94
2021/01/18 13:49:14;;;;;;;1999.90;999.90;;;6.60;99.90;;;;;;5115551;28;20044;-94
2021/01/18 13:51:41;;;;;;;1999.90;999.90;;;6.60;99.90;;;;;;5122348;27;20055;-93
2021/01/18 13:54:11;;;;;;;1999.90;999.90;;;6.60;99.90;;;;;;5115231;28;20051;-94
2021/01/18 13:56:38;;;;;;;1999.90;999.90;;;6.60;99.90;;;;;;5115264;28;20071;-94
2021/01/18 13:59:05;;;;;;;1999.90;999.90;;;6.60;99.90;;;;;;5123076;27;20482;-94
2021/01/18 14:01:33;;;;;;;1999.90;999.90;;;6.60;99.90;;;;;;5118900;27;20071;-94
2021/01/18 14:04:01;;;;;;;1999.90;999.90;;;6.60;99.90;;;;;;5115427;28;20097;-94
2021/01/18 14:06:30;;;;;;;1999.90;999.90;;;6.60;99.90;;;;;;5115497;28;20055;-94
2021/01/18 14:08:58;;;;;;;1999.90;999.90;;;6.60;99.90;;;;;;5129297;28;20371;-93
2021/01/18 14:11:36;;;;;;;1999.90;999.90;;;6.70;99.90;;;;;;5115086;28;20047;-95
2021/01/18 14:14:06;;;;;;;1999.90;999.90;;;6.60;99.90;;;;;;5115140;28;20108;-94
2021/01/18 14:16:35;;;;;;;1999.90;999.90;;;6.60;99.90;;;;;;5115518;28;20059;-95
2021/01/18 14:19:04;;;;;;;1999.90;999.90;;;6.50;99.90;;;;;;5116137;28;20547;-95
2021/01/18 14:21:33;;;;;;;1999.90;999.90;;;6.60;99.90;;;;;;5115532;28;20054;-96
2021/01/18 14:24:02;;;;;;;1999.90;999.90;;;6.50;99.90;;;;;;5115770;28;20059;-96
2021/01/18 14:26:32;;;;;;;1999.90;999.90;;;6.60;99.90;;;;;;5115027;28;20508;-95
2021/01/18 14:28:59;;;;;;;1999.90;999.90;;;6.60;99.90;;;;;;5115673;28;20104;-95
2021/01/18 14:31:28;;;;;;;1999.90;999.90;;;6.50;99.90;;;;;;5115081;28;20456;-95
2021/01/18 14:33:59;;;;;;;1999.90;999.90;;;6.50;99.90;;;;;;5115535;28;20098;-95
2021/01/18 14:36:29;;;;;;;1999.90;999.90;;;6.50;99.90;;;;;;5115896;28;20100;-95
2021/01/18 14:38:56;;;;;;;1999.90;999.90;;;6.50;99.90;;;;;;5115915;28;20100;-95
2021/01/18 14:41:26;;;;;;;1999.90;999.90;;;6.50;99.90;;;;;;5117072;28;20043;-95
2021/01/18 14:43:55;;;;;;;1999.90;999.90;;;6.50;99.90;;;;;;5116297;28;20059;-94